Time;durP1;ratioP1;P1;durP2;ratioP2;P2;SDS_P1;SDS_P2;PMS_P1;PMS_P2;Temp;Humidity;BMP_temperature;BMP_pressure;BME280_temperature;BME280_humidity;BME280_pressure;Samples;Min_cycle;Max_cycle;Signal;HPM_P1;HPM_P2
2024/01/27 00:02:16;;;;;;;0.20;0.20;;;;;;;;;;4978673;28;20268;-75
2024/01/27 00:04:42;;;;;;;0.30;0.30;;;;;;;;;;4977664;28;20620;-75
2024/01/27 00:07:09;;;;;;;0.20;0.20;;;;;;;;;;4975234;28;20259;-74
2024/01/27 00:09:35;;;;;;;0.30;0.30;;;;;;;;;;4984179;28;20221;-74
2024/01/27 00:12:02;;;;;;;0.30;0.30;;;;;;;;;;4985284;28;20237;-75
2024/01/27 00:14:28;;;;;;;0.30;0.30;;;;;;;;;;4986555;28;20722;-75
2024/01/27 00:16:55;;;;;;;0.30;0.30;;;;;;;;;;4978928;28;20222;-76
2024/01/27 00:19:21;;;;;;;0.20;0.20;;;;;;;;;;4985921;28;20236;-76
2024/01/27 00:21:49;;;;;;;0.30;0.30;;;;;;;;;;4980057;28;20242;-75
2024/01/27 00:24:16;;;;;;;0.63;0.63;;;;;;;;;;4977387;28;20335;-76
2024/01/27 00:26:43;;;;;;;0.30;0.30;;;;;;;;;;4982122;28;20232;-75
2024/01/27 00:29:09;;;;;;;0.30;0.30;;;;;;;;;;4977724;28;20242;-75
2024/01/27 00:31:36;;;;;;;0.20;0.20;;;;;;;;;;4977948;28;20226;-76
2024/01/27 00:34:02;;;;;;;0.30;0.30;;;;;;;;;;4972366;28;20234;-75
2024/01/27 00:36:28;;;;;;;0.20;0.20;;;;;;;;;;4975043;28;20234;-75
2024/01/27 00:38:55;;;;;;;0.30;0.30;;;;;;;;;;4966433;28;20327;-75
2024/01/27 00:41:21;;;;;;;0.30;0.30;;;;;;;;;;4984971;28;20225;-75
2024/01/27 00:43:48;;;;;;;0.30;0.30;;;;;;;;;;4988531;28;20221;-75
2024/01/27 00:46:14;;;;;;;0.30;0.30;;;;;;;;;;4993615;28;20579;-74
2024/01/27 00:48:41;;;;;;;0.30;0.30;;;;;;;;;;4991801;28;20225;-75
2024/01/27 00:51:07;;;;;;;0.30;0.30;;;;;;;;;;4976810;28;20245;-75
2024/01/27 00:53:34;;;;;;;0.30;0.30;;;;;;;;;;4983916;28;20312;-74
2024/01/27 00:56:01;;;;;;;0.30;0.30;;;;;;;;;;4979587;28;20229;-75
2024/01/27 00:58:27;;;;;;;0.33;0.33;;;;;;;;;;4978403;28;20332;-74
2024/01/27 01:00:54;;;;;;;0.20;0.20;;;;;;;;;;4983460;28;20229;-75
2024/01/27 01:03:20;;;;;;;0.27;0.27;;;;;;;;;;4980971;28;20248;-74
2024/01/27 01:05:47;;;;;;;0.20;0.20;;;;;;;;;;4980409;28;20284;-74
2024/01/27 01:08:13;;;;;;;0.30;0.30;;;;;;;;;;4984732;28;20237;-74
2024/01/27 01:10:40;;;;;;;0.30;0.30;;;;;;;;;;4983815;28;20238;-74
2024/01/27 01:13:06;;;;;;;0.30;0.30;;;;;;;;;;4969915;28;20242;-75
2024/01/27 01:15:33;;;;;;;0.30;0.30;;;;;;;;;;4989602;28;20217;-75
2024/01/27 01:18:00;;;;;;;0.30;0.30;;;;;;;;;;4988766;28;20257;-73
2024/01/27 01:20:27;;;;;;;0.30;0.30;;;;;;;;;;4981905;28;20221;-74
2024/01/27 01:22:53;;;;;;;0.30;0.30;;;;;;;;;;4988267;28;20313;-75
2024/01/27 01:25:19;;;;;;;0.30;0.30;;;;;;;;;;4988105;28;20221;-74
2024/01/27 01:27:46;;;;;;;0.20;0.20;;;;;;;;;;4969053;28;20230;-75
2024/01/27 01:30:12;;;;;;;0.30;0.30;;;;;;;;;;4985531;28;20582;-74
2024/01/27 01:32:39;;;;;;;0.27;0.27;;;;;;;;;;4968449;28;20229;-74
2024/01/27 01:35:05;;;;;;;0.30;0.30;;;;;;;;;;4981173;28;20233;-74
2024/01/27 01:37:32;;;;;;;0.20;0.20;;;;;;;;;;4983369;28;20866;-74
2024/01/27 01:39:58;;;;;;;0.20;0.20;;;;;;;;;;4982117;28;20737;-75
2024/01/27 01:42:25;;;;;;;0.20;0.20;;;;;;;;;;4982102;28;20226;-74
2024/01/27 01:44:51;;;;;;;0.30;0.30;;;;;;;;;;4982687;28;20235;-74
2024/01/27 01:47:18;;;;;;;0.30;0.30;;;;;;;;;;4974815;28;20257;-75
2024/01/27 01:49:45;;;;;;;0.30;0.30;;;;;;;;;;4981908;28;20240;-74
2024/01/27 01:52:11;;;;;;;0.30;0.30;;;;;;;;;;4981162;28;20341;-74
2024/01/27 01:54:38;;;;;;;0.20;0.20;;;;;;;;;;4982328;28;20241;-75
2024/01/27 01:57:05;;;;;;;0.20;0.20;;;;;;;;;;4980167;28;20229;-73
2024/01/27 01:59:31;;;;;;;0.70;0.70;;;;;;;;;;4984028;28;20243;-74
2024/01/27 02:01:58;;;;;;;1.23;1.13;;;;;;;;;;4986681;28;20228;-75
2024/01/27 02:04:24;;;;;;;0.30;0.30;;;;;;;;;;4985394;28;20226;-74
2024/01/27 02:06:50;;;;;;;0.20;0.20;;;;;;;;;;4985024;28;20741;-75
2024/01/27 02:09:17;;;;;;;0.20;0.20;;;;;;;;;;4973055;28;20241;-74
2024/01/27 02:11:43;;;;;;;0.30;0.30;;;;;;;;;;4988324;28;20245;-75
2024/01/27 02:14:10;;;;;;;0.30;0.30;;;;;;;;;;4988379;28;20237;-74
2024/01/27 02:16:36;;;;;;;0.20;0.20;;;;;;;;;;4985764;28;20218;-75
2024/01/27 02:19:02;;;;;;;0.30;0.30;;;;;;;;;;4979184;28;20308;-75
2024/01/27 02:21:30;;;;;;;0.23;0.23;;;;;;;;;;4982890;28;20841;-74
2024/01/27 02:23:57;;;;;;;0.20;0.20;;;;;;;;;;4980720;28;20228;-74
2024/01/27 02:26:24;;;;;;;1.80;0.97;;;;;;;;;;4982240;28;20257;-74
2024/01/27 02:28:50;;;;;;;0.20;0.20;;;;;;;;;;4968570;28;20241;-76
2024/01/27 02:31:17;;;;;;;0.30;0.30;;;;;;;;;;4977338;28;20244;-74
2024/01/27 02:33:43;;;;;;;0.20;0.20;;;;;;;;;;4977337;28;20670;-74
2024/01/27 02:36:10;;;;;;;0.30;0.30;;;;;;;;;;4981413;28;20253;-74
2024/01/27 02:38:37;;;;;;;0.30;0.30;;;;;;;;;;4984602;28;21223;-75
2024/01/27 02:41:03;;;;;;;0.20;0.20;;;;;;;;;;4982134;28;20222;-74
2024/01/27 02:43:29;;;;;;;0.77;0.77;;;;;;;;;;4970411;28;20250;-75
2024/01/27 02:45:56;;;;;;;0.20;0.20;;;;;;;;;;4981186;28;20312;-76
2024/01/27 02:48:22;;;;;;;0.30;0.30;;;;;;;;;;4979785;28;20238;-74
2024/01/27 02:50:49;;;;;;;0.20;0.20;;;;;;;;;;4978759;28;20368;-75
2024/01/27 02:53:16;;;;;;;0.20;0.20;;;;;;;;;;4982955;28;20314;-74
2024/01/27 02:55:42;;;;;;;0.30;0.30;;;;;;;;;;4983419;28;20227;-75
2024/01/27 02:58:08;;;;;;;0.20;0.20;;;;;;;;;;4984348;28;20253;-73
2024/01/27 03:00:35;;;;;;;0.20;0.20;;;;;;;;;;4985067;28;20594;-74
2024/01/27 03:03:01;;;;;;;0.30;0.30;;;;;;;;;;4987278;28;20231;-74
2024/01/27 03:05:28;;;;;;;0.30;0.30;;;;;;;;;;4977740;28;20228;-74
2024/01/27 03:07:54;;;;;;;0.30;0.30;;;;;;;;;;4980424;28;20241;-74
2024/01/27 03:10:21;;;;;;;0.30;0.30;;;;;;;;;;4980559;28;20285;-74
2024/01/27 03:12:47;;;;;;;0.30;0.30;;;;;;;;;;4981491;28;20233;-74
2024/01/27 03:15:13;;;;;;;0.30;0.30;;;;;;;;;;4979158;28;20606;-74
2024/01/27 03:17:40;;;;;;;0.23;0.23;;;;;;;;;;4979460;28;20719;-74
2024/01/27 03:20:08;;;;;;;0.30;0.30;;;;;;;;;;4980988;28;20225;-75
2024/01/27 03:22:34;;;;;;;0.37;0.37;;;;;;;;;;4986994;28;20252;-75
2024/01/27 03:25:01;;;;;;;0.20;0.20;;;;;;;;;;4994262;28;20240;-75
2024/01/27 03:27:27;;;;;;;0.73;0.73;;;;;;;;;;4981423;28;20233;-75
2024/01/27 03:29:56;;;;;;;0.30;0.30;;;;;;;;;;4982784;28;20323;-75
2024/01/27 03:32:22;;;;;;;0.30;0.30;;;;;;;;;;4984500;28;20235;-75
2024/01/27 03:34:49;;;;;;;0.30;0.30;;;;;;;;;;4986807;28;20233;-75
2024/01/27 03:37:15;;;;;;;0.20;0.20;;;;;;;;;;4983055;28;20221;-74
2024/01/27 03:39:42;;;;;;;0.30;0.30;;;;;;;;;;4978243;28;20230;-75
2024/01/27 03:42:09;;;;;;;0.20;0.20;;;;;;;;;;4986052;28;20229;-75
2024/01/27 03:44:35;;;;;;;0.20;0.20;;;;;;;;;;4985887;28;20221;-74
2024/01/27 03:47:04;;;;;;;0.73;0.73;;;;;;;;;;4986731;28;20221;-75
2024/01/27 03:49:30;;;;;;;0.30;0.30;;;;;;;;;;4974129;28;20233;-75
2024/01/27 03:51:57;;;;;;;0.20;0.20;;;;;;;;;;4973460;28;20229;-75
2024/01/27 03:54:23;;;;;;;0.30;0.30;;;;;;;;;;4980442;28;20225;-75
2024/01/27 03:56:50;;;;;;;0.30;0.30;;;;;;;;;;4980340;28;20229;-75
2024/01/27 03:59:17;;;;;;;0.23;0.23;;;;;;;;;;4967386;28;20690;-75
2024/01/27 04:01:43;;;;;;;0.30;0.30;;;;;;;;;;4980178;28;20239;-75
2024/01/27 04:04:10;;;;;;;0.20;0.20;;;;;;;;;;4982228;28;20233;-73
2024/01/27 04:06:38;;;;;;;0.30;0.30;;;;;;;;;;4983664;28;20229;-74
2024/01/27 04:09:08;;;;;;;0.30;0.30;;;;;;;;;;4978349;28;20233;-74
2024/01/27 04:11:36;;;;;;;0.20;0.20;;;;;;;;;;4978485;28;20284;-75
2024/01/27 04:14:04;;;;;;;0.30;0.30;;;;;;;;;;4984699;28;20233;-74
2024/01/27 04:16:31;;;;;;;0.20;0.20;;;;;;;;;;4986078;28;20232;-74
2024/01/27 04:18:58;;;;;;;0.30;0.30;;;;;;;;;;4982803;28;20309;-74
2024/01/27 04:21:24;;;;;;;0.30;0.30;;;;;;;;;;4985198;28;20316;-75
2024/01/27 04:23:51;;;;;;;2.47;0.93;;;;;;;;;;4979777;28;20241;-74
2024/01/27 04:26:17;;;;;;;0.30;0.30;;;;;;;;;;4978911;28;20276;-74
2024/01/27 04:28:45;;;;;;;0.20;0.20;;;;;;;;;;4980212;28;20241;-74
2024/01/27 04:31:11;;;;;;;0.30;0.30;;;;;;;;;;4983296;28;20245;-74
2024/01/27 04:33:38;;;;;;;0.63;0.53;;;;;;;;;;4985229;28;20232;-74
2024/01/27 04:36:06;;;;;;;0.20;0.20;;;;;;;;;;4986506;28;20263;-75
2024/01/27 04:38:34;;;;;;;0.30;0.30;;;;;;;;;;4984591;28;20229;-74
2024/01/27 04:41:00;;;;;;;0.20;0.20;;;;;;;;;;4970554;28;20236;-74
2024/01/27 04:43:28;;;;;;;0.20;0.20;;;;;;;;;;4986099;28;20226;-74
2024/01/27 04:45:54;;;;;;;0.30;0.30;;;;;;;;;;4982026;28;20738;-74
2024/01/27 04:48:21;;;;;;;0.30;0.30;;;;;;;;;;4982003;28;20245;-75
2024/01/27 04:50:48;;;;;;;0.20;0.20;;;;;;;;;;4981186;28;20245;-75
2024/01/27 04:53:14;;;;;;;0.20;0.20;;;;;;;;;;4987144;28;20312;-74
2024/01/27 04:55:41;;;;;;;0.20;0.20;;;;;;;;;;4989729;28;20320;-75
2024/01/27 04:58:07;;;;;;;0.30;0.30;;;;;;;;;;4989294;28;20253;-75
2024/01/27 05:00:34;;;;;;;0.30;0.30;;;;;;;;;;4989449;28;20221;-75
2024/01/27 05:03:04;;;;;;;0.30;0.30;;;;;;;;;;4972157;28;20235;-74
2024/01/27 05:05:30;;;;;;;0.30;0.30;;;;;;;;;;4990133;28;20225;-74
2024/01/27 05:08:01;;;;;;;0.30;0.30;;;;;;;;;;4985692;28;20237;-75
2024/01/27 05:10:28;;;;;;;0.20;0.20;;;;;;;;;;4984031;28;20232;-75
2024/01/27 05:12:56;;;;;;;0.20;0.20;;;;;;;;;;4980784;28;20230;-73
2024/01/27 05:15:22;;;;;;;0.20;0.20;;;;;;;;;;4965889;28;20232;-74
2024/01/27 05:17:48;;;;;;;0.20;0.20;;;;;;;;;;4986545;28;20281;-75
2024/01/27 05:20:15;;;;;;;0.30;0.30;;;;;;;;;;4986909;28;20710;-74
2024/01/27 05:22:41;;;;;;;0.23;0.23;;;;;;;;;;4983301;28;20229;-75
2024/01/27 05:25:08;;;;;;;0.27;0.27;;;;;;;;;;4984779;28;20240;-74
2024/01/27 05:27:36;;;;;;;0.30;0.30;;;;;;;;;;4990382;28;20225;-75
2024/01/27 05:30:03;;;;;;;0.30;0.30;;;;;;;;;;4987846;28;20672;-74
2024/01/27 05:32:29;;;;;;;0.20;0.20;;;;;;;;;;4991021;28;20222;-74
2024/01/27 05:34:56;;;;;;;0.20;0.20;;;;;;;;;;4972821;28;20229;-75
2024/01/27 05:37:23;;;;;;;0.40;0.40;;;;;;;;;;4970084;28;20320;-74
2024/01/27 05:39:49;;;;;;;0.27;0.27;;;;;;;;;;4984061;28;20237;-74
2024/01/27 05:42:16;;;;;;;0.30;0.30;;;;;;;;;;4981764;28;20328;-74
2024/01/27 05:44:42;;;;;;;0.20;0.20;;;;;;;;;;4985820;28;20802;-75
2024/01/27 05:47:10;;;;;;;0.20;0.20;;;;;;;;;;4981975;28;20236;-74
2024/01/27 05:49:37;;;;;;;0.30;0.30;;;;;;;;;;4978068;28;20231;-74
2024/01/27 05:52:05;;;;;;;0.30;0.30;;;;;;;;;;4987190;28;20229;-74
2024/01/27 05:54:32;;;;;;;0.30;0.30;;;;;;;;;;4982399;28;20613;-74
2024/01/27 05:56:58;;;;;;;0.20;0.20;;;;;;;;;;4968565;28;20457;-74
2024/01/27 05:59:25;;;;;;;0.30;0.30;;;;;;;;;;4998423;28;20233;-75
2024/01/27 06:01:51;;;;;;;0.30;0.30;;;;;;;;;;4998375;28;20312;-75
2024/01/27 06:04:18;;;;;;;0.30;0.30;;;;;;;;;;4981150;28;20794;-74
2024/01/27 06:06:44;;;;;;;0.50;0.50;;;;;;;;;;4980959;28;20230;-74
2024/01/27 06:09:11;;;;;;;0.30;0.30;;;;;;;;;;4984954;28;20249;-74
2024/01/27 06:11:40;;;;;;;0.20;0.20;;;;;;;;;;4986646;28;21036;-75
2024/01/27 06:14:06;;;;;;;0.30;0.30;;;;;;;;;;4977228;28;20248;-74
2024/01/27 06:16:33;;;;;;;0.60;0.53;;;;;;;;;;4965207;28;20280;-73
2024/01/27 06:19:00;;;;;;;0.30;0.30;;;;;;;;;;4980828;28;20230;-74
2024/01/27 06:21:27;;;;;;;0.30;0.30;;;;;;;;;;4980466;28;20248;-73
2024/01/27 06:23:53;;;;;;;0.20;0.20;;;;;;;;;;4983920;28;20221;-74
2024/01/27 06:26:21;;;;;;;0.83;0.70;;;;;;;;;;4981169;28;20224;-74
2024/01/27 06:28:47;;;;;;;0.30;0.30;;;;;;;;;;4981802;28;20229;-74
2024/01/27 06:31:15;;;;;;;0.20;0.20;;;;;;;;;;4984394;28;20232;-74
2024/01/27 06:33:43;;;;;;;0.30;0.30;;;;;;;;;;4984719;28;20237;-74
2024/01/27 06:36:09;;;;;;;0.20;0.20;;;;;;;;;;4985467;28;20233;-74
2024/01/27 06:38:37;;;;;;;0.87;0.87;;;;;;;;;;4980633;28;20237;-74
2024/01/27 06:41:03;;;;;;;0.20;0.20;;;;;;;;;;4981117;28;20236;-74
2024/01/27 06:43:30;;;;;;;0.40;0.40;;;;;;;;;;4982502;28;20225;-74
2024/01/27 06:45:57;;;;;;;0.20;0.20;;;;;;;;;;4982595;28;20238;-74
2024/01/27 06:48:26;;;;;;;0.40;0.40;;;;;;;;;;4963968;28;20228;-75
2024/01/27 06:50:53;;;;;;;0.30;0.30;;;;;;;;;;4980464;28;20292;-74
2024/01/27 06:53:20;;;;;;;0.20;0.20;;;;;;;;;;4967790;28;20230;-74
2024/01/27 06:55:47;;;;;;;0.20;0.20;;;;;;;;;;4961366;28;20233;-74
2024/01/27 06:58:13;;;;;;;0.30;0.30;;;;;;;;;;4974837;28;20248;-74
2024/01/27 07:00:40;;;;;;;0.30;0.30;;;;;;;;;;4982297;28;20225;-73
2024/01/27 07:03:07;;;;;;;0.30;0.30;;;;;;;;;;4981959;28;20623;-74
2024/01/27 07:05:40;;;;;;;0.30;0.30;;;;;;;;;;4964987;28;20602;-73
2024/01/27 07:08:07;;;;;;;0.30;0.30;;;;;;;;;;4962280;28;20236;-74
2024/01/27 07:10:36;;;;;;;0.23;0.23;;;;;;;;;;4982583;28;20236;-73
2024/01/27 07:13:03;;;;;;;0.20;0.20;;;;;;;;;;4984826;28;20234;-73
2024/01/27 07:15:29;;;;;;;0.20;0.20;;;;;;;;;;4984300;28;20233;-73
2024/01/27 07:17:56;;;;;;;0.30;0.30;;;;;;;;;;4984380;28;20261;-74
2024/01/27 07:20:24;;;;;;;0.43;0.43;;;;;;;;;;4980299;28;20229;-75
2024/01/27 07:22:51;;;;;;;0.20;0.20;;;;;;;;;;4979244;28;20256;-77
2024/01/27 07:25:17;;;;;;;0.20;0.20;;;;;;;;;;4980432;28;20244;-76
2024/01/27 07:27:44;;;;;;;0.30;0.30;;;;;;;;;;4984254;28;20232;-77
2024/01/27 07:30:11;;;;;;;0.30;0.30;;;;;;;;;;4962720;28;21053;-78
2024/01/27 07:32:37;;;;;;;0.20;0.20;;;;;;;;;;4978526;28;20237;-78
2024/01/27 07:35:05;;;;;;;0.30;0.30;;;;;;;;;;4983261;28;20237;-78
2024/01/27 07:37:32;;;;;;;0.50;0.50;;;;;;;;;;4967609;28;20229;-78
2024/01/27 07:39:58;;;;;;;0.20;0.20;;;;;;;;;;4974325;28;20225;-79
2024/01/27 07:42:25;;;;;;;0.73;0.73;;;;;;;;;;4987758;28;20237;-77
2024/01/27 07:44:51;;;;;;;0.30;0.30;;;;;;;;;;4981161;28;20643;-77
2024/01/27 07:47:18;;;;;;;0.20;0.20;;;;;;;;;;4980864;28;20257;-77
2024/01/27 07:49:45;;;;;;;0.20;0.20;;;;;;;;;;4981533;28;20222;-77
2024/01/27 07:52:11;;;;;;;0.20;0.20;;;;;;;;;;4970251;28;20229;-77
2024/01/27 07:54:40;;;;;;;0.30;0.30;;;;;;;;;;4968055;28;20316;-77
2024/01/27 07:57:06;;;;;;;0.20;0.20;;;;;;;;;;4984215;28;20244;-78
2024/01/27 07:59:33;;;;;;;0.20;0.20;;;;;;;;;;4982618;28;20226;-78
2024/01/27 08:02:00;;;;;;;0.20;0.20;;;;;;;;;;4983960;28;20226;-77
2024/01/27 08:04:27;;;;;;;0.20;0.20;;;;;;;;;;4969809;28;20287;-77
2024/01/27 08:06:53;;;;;;;0.20;0.20;;;;;;;;;;4985237;28;20256;-77
2024/01/27 08:09:20;;;;;;;0.20;0.20;;;;;;;;;;4967241;28;20580;-77
2024/01/27 08:11:51;;;;;;;0.30;0.30;;;;;;;;;;4966262;28;20605;-78
2024/01/27 08:14:19;;;;;;;0.20;0.20;;;;;;;;;;4987377;28;20233;-76
2024/01/27 08:16:46;;;;;;;0.30;0.30;;;;;;;;;;4969817;28;20240;-78
2024/01/27 08:19:12;;;;;;;0.30;0.30;;;;;;;;;;4981400;28;20232;-77
2024/01/27 08:21:38;;;;;;;0.20;0.20;;;;;;;;;;4978338;28;20225;-77
2024/01/27 08:24:05;;;;;;;0.30;0.30;;;;;;;;;;4980532;28;20253;-78
2024/01/27 08:26:32;;;;;;;0.30;0.30;;;;;;;;;;4980194;28;20336;-77
2024/01/27 08:28:58;;;;;;;0.20;0.20;;;;;;;;;;4981609;28;20251;-78
2024/01/27 08:31:25;;;;;;;0.20;0.20;;;;;;;;;;4969385;28;20221;-78
2024/01/27 08:33:52;;;;;;;0.40;0.40;;;;;;;;;;4987310;28;20706;-77
2024/01/27 08:36:18;;;;;;;0.20;0.20;;;;;;;;;;5001139;28;20218;-77
2024/01/27 08:38:45;;;;;;;0.20;0.20;;;;;;;;;;5011479;28;20228;-79
2024/01/27 08:41:12;;;;;;;0.33;0.33;;;;;;;;;;4984769;28;20240;-77
2024/01/27 08:43:38;;;;;;;0.30;0.30;;;;;;;;;;4982445;28;20245;-78
2024/01/27 08:46:04;;;;;;;0.30;0.30;;;;;;;;;;4979046;28;20229;-78
2024/01/27 08:48:31;;;;;;;0.20;0.20;;;;;;;;;;4981857;28;20238;-77
2024/01/27 08:50:57;;;;;;;0.40;0.40;;;;;;;;;;4978879;28;20221;-78
2024/01/27 08:53:24;;;;;;;0.30;0.30;;;;;;;;;;4978282;28;20222;-77
2024/01/27 08:55:51;;;;;;;1.30;1.03;;;;;;;;;;4982715;28;20230;-78
2024/01/27 08:58:17;;;;;;;0.30;0.30;;;;;;;;;;4984021;28;20221;-77
2024/01/27 09:00:44;;;;;;;0.20;0.20;;;;;;;;;;4976050;28;20304;-77
2024/01/27 09:03:12;;;;;;;0.20;0.20;;;;;;;;;;4988225;28;20315;-78
2024/01/27 09:05:40;;;;;;;0.20;0.20;;;;;;;;;;4983644;28;20228;-78
2024/01/27 09:08:07;;;;;;;0.30;0.30;;;;;;;;;;4968736;28;20234;-78
2024/01/27 09:10:34;;;;;;;0.20;0.20;;;;;;;;;;4976753;28;20234;-77
2024/01/27 09:13:02;;;;;;;0.30;0.30;;;;;;;;;;4967965;28;20592;-77
2024/01/27 09:15:28;;;;;;;0.20;0.20;;;;;;;;;;4981092;28;20225;-78
2024/01/27 09:17:55;;;;;;;0.20;0.20;;;;;;;;;;4982770;28;20233;-77
2024/01/27 09:20:22;;;;;;;0.30;0.30;;;;;;;;;;4969496;28;20232;-77
2024/01/27 09:22:50;;;;;;;0.40;0.40;;;;;;;;;;4987142;28;20230;-77
2024/01/27 09:25:16;;;;;;;0.20;0.20;;;;;;;;;;4986028;28;20225;-77
2024/01/27 09:27:43;;;;;;;0.20;0.20;;;;;;;;;;4978264;28;20233;-77
2024/01/27 09:30:09;;;;;;;0.30;0.30;;;;;;;;;;4980044;28;20225;-78
2024/01/27 09:32:36;;;;;;;0.30;0.30;;;;;;;;;;4979548;28;20309;-78
2024/01/27 09:35:03;;;;;;;0.33;0.33;;;;;;;;;;4969661;28;20254;-78
2024/01/27 09:37:30;;;;;;;0.30;0.30;;;;;;;;;;4985705;28;20225;-75
2024/01/27 09:39:56;;;;;;;0.20;0.20;;;;;;;;;;4987675;28;20233;-75
2024/01/27 09:42:23;;;;;;;0.30;0.30;;;;;;;;;;4987058;28;20225;-76
2024/01/27 09:44:53;;;;;;;0.43;0.43;;;;;;;;;;4982922;28;20239;-74
2024/01/27 09:47:21;;;;;;;0.20;0.20;;;;;;;;;;4983953;28;20667;-74
2024/01/27 09:49:48;;;;;;;0.30;0.30;;;;;;;;;;4982902;28;20731;-74
2024/01/27 09:52:15;;;;;;;0.30;0.30;;;;;;;;;;4973466;28;20225;-75
2024/01/27 09:54:42;;;;;;;0.50;0.50;;;;;;;;;;4982004;28;20225;-75
2024/01/27 09:57:08;;;;;;;0.20;0.20;;;;;;;;;;4978139;28;20237;-75
2024/01/27 09:59:36;;;;;;;0.20;0.20;;;;;;;;;;4979111;28;20344;-75
2024/01/27 10:02:05;;;;;;;0.20;0.20;;;;;;;;;;4964020;28;20615;-75
2024/01/27 10:04:32;;;;;;;0.83;0.83;;;;;;;;;;4969444;28;20232;-75
2024/01/27 10:06:58;;;;;;;0.30;0.30;;;;;;;;;;4980029;28;20233;-75
2024/01/27 10:09:25;;;;;;;0.30;0.30;;;;;;;;;;4985544;28;20653;-76
2024/01/27 10:11:54;;;;;;;0.30;0.30;;;;;;;;;;4985560;28;20303;-76
2024/01/27 10:14:21;;;;;;;0.30;0.30;;;;;;;;;;4987591;28;20304;-76
2024/01/27 10:16:47;;;;;;;0.30;0.30;;;;;;;;;;4983195;28;20225;-75
2024/01/27 10:19:17;;;;;;;0.50;0.50;;;;;;;;;;4979841;28;20229;-76
2024/01/27 10:21:45;;;;;;;0.30;0.30;;;;;;;;;;4982166;28;20735;-76
2024/01/27 10:24:12;;;;;;;0.30;0.30;;;;;;;;;;4978169;28;20234;-75
2024/01/27 10:26:39;;;;;;;0.30;0.30;;;;;;;;;;4965663;28;20217;-75
2024/01/27 10:29:05;;;;;;;0.30;0.30;;;;;;;;;;4959052;28;20268;-76
2024/01/27 10:31:36;;;;;;;0.30;0.30;;;;;;;;;;4964704;28;20237;-77
2024/01/27 10:34:04;;;;;;;0.27;0.27;;;;;;;;;;4964528;28;20245;-75
2024/01/27 10:36:40;;;;;;;0.23;0.23;;;;;;;;;;4979987;28;20699;-76
2024/01/27 10:39:20;;;;;;;0.40;0.40;;;;;;;;;;4977467;28;20245;-75
2024/01/27 10:41:48;;;;;;;0.60;0.60;;;;;;;;;;4985959;28;20225;-75
2024/01/27 10:44:16;;;;;;;0.20;0.20;;;;;;;;;;4973899;28;20751;-84
2024/01/27 10:46:46;;;;;;;0.40;0.40;;;;;;;;;;4973791;28;20237;-73
2024/01/27 10:49:14;;;;;;;0.20;0.20;;;;;;;;;;4980650;28;20242;-73
2024/01/27 10:51:46;;;;;;;0.33;0.33;;;;;;;;;;4979729;28;20221;-75
2024/01/27 10:54:16;;;;;;;0.30;0.30;;;;;;;;;;4959178;28;20752;-75
2024/01/27 10:56:45;;;;;;;0.50;0.50;;;;;;;;;;4983974;28;20254;-75
2024/01/27 10:59:14;;;;;;;0.40;0.40;;;;;;;;;;4979059;28;20245;-75
2024/01/27 11:01:41;;;;;;;0.40;0.40;;;;;;;;;;4977979;28;20283;-74
2024/01/27 11:04:11;;;;;;;0.30;0.30;;;;;;;;;;4981171;28;20229;-74
2024/01/27 11:06:38;;;;;;;0.37;0.37;;;;;;;;;;4979849;28;20217;-74
2024/01/27 11:09:05;;;;;;;0.30;0.30;;;;;;;;;;4975623;28;21131;-75
2024/01/27 11:11:32;;;;;;;0.30;0.30;;;;;;;;;;4972765;28;20801;-73
2024/01/27 11:13:59;;;;;;;0.30;0.30;;;;;;;;;;4973989;28;20389;-76
2024/01/27 11:16:25;;;;;;;0.50;0.50;;;;;;;;;;4974143;28;20233;-75
2024/01/27 11:18:52;;;;;;;0.30;0.30;;;;;;;;;;4980927;28;20233;-75
2024/01/27 11:21:19;;;;;;;0.30;0.30;;;;;;;;;;4985453;28;20261;-75
2024/01/27 11:23:47;;;;;;;0.60;0.60;;;;;;;;;;4974291;28;20257;-75
2024/01/27 11:26:22;;;;;;;0.40;0.40;;;;;;;;;;4977901;28;20281;-75
2024/01/27 11:28:49;;;;;;;0.40;0.40;;;;;;;;;;4973404;28;21079;-75
2024/01/27 11:31:18;;;;;;;0.30;0.30;;;;;;;;;;4966359;28;20324;-75
2024/01/27 11:33:48;;;;;;;1.60;0.50;;;;;;;;;;4982130;28;20625;-74
2024/01/27 11:36:21;;;;;;;0.30;0.30;;;;;;;;;;4979492;28;20233;-75
2024/01/27 11:38:47;;;;;;;1.33;1.33;;;;;;;;;;4982322;28;20344;-74
2024/01/27 11:41:24;;;;;;;0.40;0.40;;;;;;;;;;4983674;28;20314;-75
2024/01/27 11:43:59;;;;;;;0.30;0.30;;;;;;;;;;4962819;28;20225;-75
2024/01/27 11:46:29;;;;;;;0.30;0.30;;;;;;;;;;4978773;28;20225;-74
2024/01/27 11:48:55;;;;;;;0.67;0.67;;;;;;;;;;4976127;28;20252;-74
2024/01/27 11:51:23;;;;;;;0.30;0.30;;;;;;;;;;4977953;28;20726;-74
2024/01/27 11:53:50;;;;;;;0.50;0.50;;;;;;;;;;4979754;28;20224;-74
2024/01/27 11:56:17;;;;;;;0.30;0.30;;;;;;;;;;4977863;28;20241;-74
2024/01/27 11:58:48;;;;;;;0.50;0.50;;;;;;;;;;4979253;28;20222;-74
2024/01/27 12:01:16;;;;;;;0.63;0.63;;;;;;;;;;4978209;28;20225;-74
2024/01/27 12:03:42;;;;;;;1.07;0.97;;;;;;;;;;4981931;28;20245;-74
2024/01/27 12:06:11;;;;;;;0.40;0.40;;;;;;;;;;4980834;28;21200;-74
2024/01/27 12:08:50;;;;;;;0.30;0.30;;;;;;;;;;4982783;28;20241;-75
2024/01/27 12:11:17;;;;;;;0.50;0.50;;;;;;;;;;4986612;28;20233;-74
2024/01/27 12:13:50;;;;;;;0.55;0.50;;;;;;;;;;4982643;28;20218;-74
2024/01/27 12:16:16;;;;;;;0.30;0.30;;;;;;;;;;4985446;28;20234;-74
2024/01/27 12:18:44;;;;;;;0.40;0.40;;;;;;;;;;4986377;28;20790;-74
2024/01/27 12:21:10;;;;;;;0.38;0.38;;;;;;;;;;4985648;28;20917;-75
2024/01/27 12:23:51;;;;;;;0.30;0.30;;;;;;;;;;4987930;28;20275;-74
2024/01/27 12:26:20;;;;;;;0.38;0.38;;;;;;;;;;4987573;28;20249;-75
2024/01/27 12:28:47;;;;;;;0.47;0.47;;;;;;;;;;4986180;28;20240;-74
2024/01/27 12:31:17;;;;;;;0.40;0.40;;;;;;;;;;4987332;28;20229;-75
2024/01/27 12:33:52;;;;;;;0.45;0.45;;;;;;;;;;4987060;28;20741;-75
2024/01/27 12:36:22;;;;;;;0.40;0.40;;;;;;;;;;4986007;28;21097;-74
2024/01/27 12:38:55;;;;;;;0.30;0.30;;;;;;;;;;4985634;28;20739;-75
2024/01/27 12:41:22;;;;;;;0.40;0.40;;;;;;;;;;4986137;28;20227;-75
2024/01/27 12:43:49;;;;;;;0.40;0.40;;;;;;;;;;4985962;28;20229;-74
2024/01/27 12:46:16;;;;;;;0.38;0.38;;;;;;;;;;4985418;28;20719;-75
2024/01/27 12:48:44;;;;;;;0.47;0.47;;;;;;;;;;4985413;28;20233;-74
2024/01/27 12:51:11;;;;;;;0.30;0.30;;;;;;;;;;4985759;28;20233;-75
2024/01/27 12:53:43;;;;;;;0.50;0.50;;;;;;;;;;4986084;28;20238;-75
2024/01/27 12:56:11;;;;;;;0.30;0.30;;;;;;;;;;4986280;28;20233;-75
2024/01/27 12:58:38;;;;;;;0.52;0.52;;;;;;;;;;4984636;28;20596;-75
2024/01/27 13:01:05;;;;;;;0.30;0.30;;;;;;;;;;4985781;28;20233;-73
2024/01/27 13:03:32;;;;;;;0.30;0.30;;;;;;;;;;4984461;28;20280;-74
2024/01/27 13:05:58;;;;;;;0.30;0.30;;;;;;;;;;4968647;28;21189;-74
2024/01/27 13:08:25;;;;;;;0.30;0.30;;;;;;;;;;4968834;28;20699;-75
2024/01/27 13:10:51;;;;;;;2.08;0.95;;;;;;;;;;4988208;28;20221;-75
2024/01/27 13:13:18;;;;;;;0.60;0.60;;;;;;;;;;4974206;28;20745;-78
2024/01/27 13:15:44;;;;;;;0.32;0.32;;;;;;;;;;4989950;28;20226;-78
2024/01/27 13:18:11;;;;;;;0.40;0.40;;;;;;;;;;4981658;28;20250;-78
2024/01/27 13:20:40;;;;;;;0.52;0.52;;;;;;;;;;4988212;28;20221;-77
2024/01/27 13:23:07;;;;;;;0.55;0.55;;;;;;;;;;4986953;28;20241;-77
2024/01/27 13:25:33;;;;;;;0.40;0.40;;;;;;;;;;4991216;28;20228;-78
2024/01/27 13:28:00;;;;;;;0.80;0.80;;;;;;;;;;4992049;28;20234;-77
2024/01/27 13:30:28;;;;;;;0.70;0.70;;;;;;;;;;4989567;28;20291;-77
2024/01/27 13:32:54;;;;;;;0.30;0.30;;;;;;;;;;4973886;28;20225;-77
2024/01/27 13:35:21;;;;;;;0.35;0.35;;;;;;;;;;4990387;28;20227;-77
2024/01/27 13:37:48;;;;;;;0.50;0.50;;;;;;;;;;4989255;28;20222;-75
2024/01/27 13:40:14;;;;;;;0.40;0.40;;;;;;;;;;4978657;28;20233;-75
2024/01/27 13:42:41;;;;;;;0.70;0.70;;;;;;;;;;4989788;28;20229;-75
2024/01/27 13:45:08;;;;;;;0.50;0.50;;;;;;;;;;4987920;28;20241;-76
2024/01/27 13:47:35;;;;;;;0.32;0.32;;;;;;;;;;4974013;28;20226;-76
2024/01/27 13:50:01;;;;;;;0.30;0.30;;;;;;;;;;4988888;28;20235;-76
2024/01/27 13:52:29;;;;;;;0.35;0.35;;;;;;;;;;4975144;28;20359;-77
2024/01/27 13:54:55;;;;;;;0.40;0.40;;;;;;;;;;4988227;28;20283;-76
2024/01/27 13:57:22;;;;;;;0.55;0.55;;;;;;;;;;4972544;28;20230;-76
2024/01/27 13:59:49;;;;;;;0.30;0.30;;;;;;;;;;4986630;28;20598;-77
2024/01/27 14:02:16;;;;;;;0.30;0.30;;;;;;;;;;4988247;28;20738;-76
2024/01/27 14:04:42;;;;;;;0.50;0.50;;;;;;;;;;4984481;28;20241;-76
2024/01/27 14:07:09;;;;;;;0.50;0.50;;;;;;;;;;4980677;28;20225;-77
2024/01/27 14:09:36;;;;;;;0.50;0.50;;;;;;;;;;4981231;28;20245;-76
2024/01/27 14:12:04;;;;;;;0.40;0.40;;;;;;;;;;4983785;28;20317;-76
2024/01/27 14:14:31;;;;;;;1.85;1.58;;;;;;;;;;4990813;28;20233;-76
2024/01/27 14:16:58;;;;;;;0.30;0.30;;;;;;;;;;4980584;28;20229;-75
2024/01/27 14:19:24;;;;;;;0.50;0.50;;;;;;;;;;4995266;28;20229;-76
2024/01/27 14:21:50;;;;;;;1.50;1.40;;;;;;;;;;4982216;28;20997;-75
2024/01/27 14:24:17;;;;;;;0.40;0.40;;;;;;;;;;4981340;28;20233;-75
2024/01/27 14:26:43;;;;;;;0.45;0.45;;;;;;;;;;4978592;28;20253;-75
2024/01/27 14:29:10;;;;;;;0.30;0.30;;;;;;;;;;4976918;28;20243;-75
2024/01/27 14:31:36;;;;;;;0.57;0.57;;;;;;;;;;4978530;28;20233;-74
2024/01/27 14:34:04;;;;;;;0.30;0.30;;;;;;;;;;4957722;28;20229;-75
2024/01/27 14:36:30;;;;;;;0.30;0.30;;;;;;;;;;4979591;28;20232;-75
2024/01/27 14:38:57;;;;;;;0.50;0.50;;;;;;;;;;4975849;28;20242;-75
2024/01/27 14:41:24;;;;;;;0.47;0.47;;;;;;;;;;4980022;28;20234;-74
2024/01/27 14:43:50;;;;;;;0.30;0.30;;;;;;;;;;4981736;28;20222;-73